Time;durP1;ratioP1;P1;durP2;ratioP2;P2;SDS_P1;SDS_P2;PMS_P1;PMS_P2;Temp;Humidity;BMP_temperature;BMP_pressure;BME280_temperature;BME280_humidity;BME280_pressure;Samples;Min_cycle;Max_cycle;Signal;HPM_P1;HPM_P2
2021/05/01 00:01:31;;;;;;;;;;;;;;;-144.99;89.00;52299.31;5069611;28;19946;-67
2021/05/01 00:04:01;;;;;;;;;;;;;;;-144.99;88.97;52301.34;5069027;28;20558;-64
2021/05/01 00:06:29;;;;;;;;;;;;;;;-144.99;88.84;52297.25;5066017;28;20440;-66
2021/05/01 00:08:55;;;;;;;;;;;;;;;-144.99;89.30;52329.88;5070479;28;19962;-67
2021/05/01 00:11:22;;;;;;;;;;;;;;;-144.99;89.11;52297.25;5069120;28;19977;-67
2021/05/01 00:13:49;;;;;;;;;;;;;;;-144.99;89.35;52309.50;5066461;28;20025;-63
2021/05/01 00:16:15;;;;;;;;;;;;;;;-144.99;90.02;52309.50;5068142;28;19959;-67
2021/05/01 00:18:40;;;;;;;;;;;;;;;-144.99;90.36;52276.88;5068954;28;19962;-66
2021/05/01 00:21:07;;;;;;;;;;;;;;;-144.99;90.66;52268.72;5061520;28;19954;-66
2021/05/01 00:23:36;;;;;;;;;;;;;;;-144.99;90.49;52315.59;5062756;28;20327;-66
2021/05/01 00:26:02;;;;;;;;;;;;;;;-144.99;90.38;52342.09;5069697;28;19943;-63
2021/05/01 00:28:27;;;;;;;;;;;;;;;-144.99;90.39;52295.22;5072190;28;19969;-65
2021/05/01 00:30:53;;;;;;;;;;;;;;;-144.99;90.58;52317.66;5070765;28;20310;-67
2021/05/01 00:33:22;;;;;;;;;;;;;;;-144.99;90.73;52317.66;5071701;28;20355;-67
2021/05/01 00:35:48;;;;;;;;;;;;;;;-144.99;90.64;52280.97;5070141;28;19954;-64
2021/05/01 00:38:14;;;;;;;;;;;;;;;-144.99;90.74;52309.50;5071344;28;19965;-65
2021/05/01 00:40:40;;;;;;;;;;;;;;;-144.99;90.70;52301.34;5068711;28;19965;-64
2021/05/01 00:43:09;;;;;;;;;;;;;;;-144.99;90.72;52268.72;5070424;28;20251;-64
2021/05/01 00:45:37;;;;;;;;;;;;;;;-144.99;90.87;52256.50;5067447;28;19951;-66
2021/05/01 00:48:03;;;;;;;;;;;;;;;-144.99;91.56;52289.13;5070283;28;20442;-63
2021/05/01 00:50:29;;;;;;;;;;;;;;;-144.99;91.46;52287.06;5068033;28;19969;-63
2021/05/01 00:52:58;;;;;;;;;;;;;;;-144.99;91.44;52285.03;5069501;28;19956;-64
2021/05/01 00:55:24;;;;;;;;;;;;;;;-144.99;91.53;52293.19;5064996;28;20452;-64
2021/05/01 00:57:53;;;;;;;;;;;;;;;-144.99;91.60;52264.66;5067732;28;19954;-63
2021/05/01 01:00:37;;;;;;;;;;;;;;;-144.99;91.49;52291.16;5069612;28;19964;-64
2021/05/01 01:03:08;;;;;;;;;;;;;;;-144.99;91.50;52321.72;5072685;28;19953;-64
2021/05/01 01:05:39;;;;;;;;;;;;;;;-144.99;91.61;52264.66;5065381;28;20324;-64
2021/05/01 01:08:06;;;;;;;;;;;;;;;-144.99;91.68;52260.56;5070914;28;19964;-63
2021/05/01 01:10:35;;;;;;;;;;;;;;;-144.99;91.78;52289.13;5071545;28;19967;-63
2021/05/01 01:13:01;;;;;;;;;;;;;;;-144.99;91.88;52278.91;5070631;28;19948;-63
2021/05/01 01:15:34;;;;;;;;;;;;;;;-144.99;92.05;52260.56;5073060;28;20393;-64
2021/05/01 01:18:00;;;;;;;;;;;;;;;-144.99;92.42;52305.41;5072093;28;19948;-63
2021/05/01 01:20:26;;;;;;;;;;;;;;;-144.99;92.25;52242.22;5061700;28;20477;-63
2021/05/01 01:22:56;;;;;;;;;;;;;;;-144.99;92.12;52280.97;5071582;28;20256;-64
2021/05/01 01:25:22;;;;;;;;;;;;;;;-144.99;92.23;52278.91;5065820;28;19955;-64
2021/05/01 01:27:49;;;;;;;;;;;;;;;-144.99;93.08;52291.16;5072273;28;19944;-63
2021/05/01 01:30:17;;;;;;;;;;;;;;;-144.99;92.84;52313.56;5072261;28;19975;-63
2021/05/01 01:32:43;;;;;;;;;;;;;;;-144.99;92.72;52297.25;5072629;28;19948;-64
2021/05/01 01:35:10;;;;;;;;;;;;;;;-144.99;92.73;52297.25;5072258;28;19948;-62
2021/05/01 01:37:37;;;;;;;;;;;;;;;-144.99;92.69;52260.56;5072080;28;19948;-62
2021/05/01 01:40:09;;;;;;;;;;;;;;;-144.99;92.90;52305.41;5069657;28;19962;-64
2021/05/01 01:42:34;;;;;;;;;;;;;;;-144.99;93.45;52258.53;5070857;28;19947;-63
2021/05/01 01:45:00;;;;;;;;;;;;;;;-144.99;93.50;52278.91;5069682;28;20433;-63
2021/05/01 01:47:26;;;;;;;;;;;;;;;-144.99;93.66;52285.03;5071697;28;19992;-61
2021/05/01 01:49:55;;;;;;;;;;;;;;;-144.99;93.59;52301.34;5070496;28;20054;-63
2021/05/01 01:52:22;;;;;;;;;;;;;;;-144.99;93.65;52297.25;5069353;28;20322;-63
2021/05/01 01:54:48;;;;;;;;;;;;;;;-144.99;93.92;52329.88;5072135;28;20025;-62
2021/05/01 01:57:18;;;;;;;;;;;;;;;-144.99;94.03;52289.13;5070841;28;20391;-63
2021/05/01 01:59:43;;;;;;;;;;;;;;;-144.99;93.89;52325.81;5072049;28;20019;-64
2021/05/01 02:02:10;;;;;;;;;;;;;;;-144.99;93.94;52276.88;5071422;28;19947;-65
2021/05/01 02:04:38;;;;;;;;;;;;;;;-144.99;93.94;52287.06;5062702;28;20498;-63
2021/05/01 02:07:04;;;;;;;;;;;;;;;-144.99;94.14;52252.44;5069634;28;20003;-64
2021/05/01 02:09:30;;;;;;;;;;;;;;;-144.99;93.91;52254.47;5067940;28;19973;-64
2021/05/01 02:11:59;;;;;;;;;;;;;;;-144.99;93.78;52293.19;5071571;28;20308;-63
2021/05/01 02:14:25;;;;;;;;;;;;;;;-144.99;93.69;52301.34;5069223;28;19964;-63
2021/05/01 02:16:51;;;;;;;;;;;;;;;-144.99;93.59;52268.72;5069892;28;19950;-64
2021/05/01 02:19:17;;;;;;;;;;;;;;;-144.99;93.34;52280.97;5063454;28;19964;-63
2021/05/01 02:21:45;;;;;;;;;;;;;;;-144.99;93.29;52303.38;5066973;28;19994;-63
2021/05/01 02:24:11;;;;;;;;;;;;;;;-144.99;93.07;52260.56;5071297;28;19945;-63
2021/05/01 02:26:38;;;;;;;;;;;;;;;-144.99;93.12;52289.13;5071154;28;19956;-63
2021/05/01 02:29:04;;;;;;;;;;;;;;;-144.99;93.47;52301.34;5072922;28;19969;-64
2021/05/01 02:31:31;;;;;;;;;;;;;;;-144.99;93.77;52297.25;5072092;28;19967;-64
2021/05/01 02:33:57;;;;;;;;;;;;;;;-144.99;93.66;52280.97;5072947;28;19963;-63
2021/05/01 02:36:28;;;;;;;;;;;;;;;-144.99;93.42;52309.50;5071355;28;20336;-63
2021/05/01 02:38:57;;;;;;;;;;;;;;;-144.99;93.41;52317.66;5068886;28;19967;-62
2021/05/01 02:41:24;;;;;;;;;;;;;;;-144.99;93.28;52283.00;5071927;28;19953;-63
2021/05/01 02:43:50;;;;;;;;;;;;;;;-144.99;93.14;52256.50;5069133;28;19951;-63
2021/05/01 02:46:19;;;;;;;;;;;;;;;-144.99;93.19;52309.50;5070974;28;19954;-64
2021/05/01 02:48:48;;;;;;;;;;;;;;;-144.99;93.01;52264.66;5069494;28;20852;-63
2021/05/01 02:51:20;;;;;;;;;;;;;;;-144.99;93.31;52307.47;5069319;28;20434;-63
2021/05/01 02:53:46;;;;;;;;;;;;;;;-144.99;93.50;52276.88;5069346;28;20186;-63
2021/05/01 02:56:11;;;;;;;;;;;;;;;-144.99;93.47;52285.03;5069738;28;20364;-63
2021/05/01 02:58:40;;;;;;;;;;;;;;;-144.99;93.44;52272.81;5069791;28;19993;-64
2021/05/01 03:01:06;;;;;;;;;;;;;;;-144.99;93.26;52289.13;5070021;28;19950;-63
2021/05/01 03:03:31;;;;;;;;;;;;;;;-144.99;93.47;52289.13;5071139;28;20007;-63
2021/05/01 03:05:58;;;;;;;;;;;;;;;-144.99;93.50;52289.13;5066533;28;20163;-63
2021/05/01 03:08:24;;;;;;;;;;;;;;;-144.99;93.76;52297.25;5070869;28;20147;-63
2021/05/01 03:10:50;;;;;;;;;;;;;;;-144.99;93.59;52301.34;5069442;28;20287;-62
2021/05/01 03:13:16;;;;;;;;;;;;;;;-144.99;93.42;52305.41;5068457;28;19957;-62
2021/05/01 03:15:41;;;;;;;;;;;;;;;-144.99;93.41;52289.13;5068850;28;19967;-63
2021/05/01 03:18:10;;;;;;;;;;;;;;;-144.99;93.47;52264.66;5069033;28;19967;-64
2021/05/01 03:20:36;;;;;;;;;;;;;;;-144.99;93.54;52264.66;5060979;28;19949;-63
2021/05/01 03:23:08;;;;;;;;;;;;;;;-144.99;93.29;52278.91;5061460;28;20337;-63
2021/05/01 03:25:34;;;;;;;;;;;;;;;-144.99;93.24;52258.53;5065823;28;19947;-63
2021/05/01 03:28:02;;;;;;;;;;;;;;;-144.99;93.11;52297.25;5070499;28;20318;-63
2021/05/01 03:30:28;;;;;;;;;;;;;;;-144.99;93.09;52313.56;5067940;28;19964;-63
2021/05/01 03:32:57;;;;;;;;;;;;;;;-144.99;93.11;52248.34;5070298;28;19955;-62
2021/05/01 03:35:23;;;;;;;;;;;;;;;-144.99;92.97;52238.16;5069804;28;19951;-62
2021/05/01 03:37:52;;;;;;;;;;;;;;;-144.99;93.15;52285.03;5069879;28;19995;-63
2021/05/01 03:40:18;;;;;;;;;;;;;;;-144.99;92.86;52260.56;5066485;28;19951;-63
2021/05/01 03:42:44;;;;;;;;;;;;;;;-144.99;92.87;52232.03;5069877;28;19946;-64
2021/05/01 03:45:13;;;;;;;;;;;;;;;-144.99;93.01;52276.88;5067492;28;19998;-63
2021/05/01 03:47:39;;;;;;;;;;;;;;;-144.99;93.13;52268.72;5063197;28;19946;-63
2021/05/01 03:50:07;;;;;;;;;;;;;;;-144.99;92.71;52280.97;5069878;28;20322;-64
2021/05/01 03:52:36;;;;;;;;;;;;;;;-144.99;92.71;52278.91;5067538;28;19945;-64
2021/05/01 03:55:09;;;;;;;;;;;;;;;-144.99;92.57;52285.03;5069753;28;20358;-63
2021/05/01 03:57:35;;;;;;;;;;;;;;;-144.99;92.42;52268.72;5062628;28;20005;-63
2021/05/01 04:00:02;;;;;;;;;;;;;;;-144.99;92.60;52252.44;5068860;28;20338;-64
2021/05/01 04:02:28;;;;;;;;;;;;;;;-144.99;92.30;52301.34;5069902;28;20012;-63
2021/05/01 04:04:53;;;;;;;;;;;;;;;-144.99;92.14;52260.56;5067997;28;19951;-64
2021/05/01 04:07:22;;;;;;;;;;;;;;;-144.99;91.93;52287.06;5070663;28;19953;-63
2021/05/01 04:09:50;;;;;;;;;;;;;;;-144.99;92.31;52315.59;5071171;28;20390;-63
2021/05/01 04:12:19;;;;;;;;;;;;;;;-144.99;92.35;52268.72;5070949;28;19961;-63
2021/05/01 04:14:48;;;;;;;;;;;;;;;-144.99;92.26;52305.41;5072923;28;19947;-63
2021/05/01 04:17:16;;;;;;;;;;;;;;;-144.99;92.36;52333.94;5067791;28;19949;-63
2021/05/01 04:19:47;;;;;;;;;;;;;;;-144.99;92.29;52280.97;5063550;28;20371;-63
2021/05/01 04:22:13;;;;;;;;;;;;;;;-144.99;92.18;52289.13;5069835;28;19952;-63
2021/05/01 04:24:41;;;;;;;;;;;;;;;-144.99;92.05;52287.06;5069285;28;20318;-63
2021/05/01 04:27:10;;;;;;;;;;;;;;;-144.99;91.75;52289.13;5067206;28;19958;-63
2021/05/01 04:29:38;;;;;;;;;;;;;;;-144.99;91.40;52260.56;5061781;28;19964;-63
2021/05/01 04:32:08;;;;;;;;;;;;;;;-144.99;91.04;52248.34;5068845;28;20429;-62
2021/05/01 04:34:37;;;;;;;;;;;;;;;-144.99;91.12;52264.66;5064537;28;19951;-62
2021/05/01 04:37:05;;;;;;;;;;;;;;;-144.99;91.14;52278.91;5072404;28;20093;-62
2021/05/01 04:39:34;;;;;;;;;;;;;;;-144.99;90.87;52258.53;5065703;28;19963;-63
2021/05/01 04:42:03;;;;;;;;;;;;;;;-144.99;90.75;52301.34;5073219;28;20376;-63
2021/05/01 04:44:32;;;;;;;;;;;;;;;-144.99;90.77;52272.81;5071837;28;19946;-64
2021/05/01 04:46:57;;;;;;;;;;;;;;;-144.99;90.98;52248.34;5073119;28;19949;-62
2021/05/01 04:49:24;;;;;;;;;;;;;;;-144.99;90.44;52313.56;5071996;28;19973;-63
2021/05/01 04:51:50;;;;;;;;;;;;;;;-144.99;90.34;52272.81;5071895;28;19961;-63
2021/05/01 04:54:19;;;;;;;;;;;;;;;-144.99;90.42;52246.31;5071922;28;20321;-63
2021/05/01 04:56:47;;;;;;;;;;;;;;;-144.99;90.31;52248.34;5071665;28;19948;-63
2021/05/01 04:59:16;;;;;;;;;;;;;;;-144.99;90.57;52246.31;5072768;28;20042;-65
2021/05/01 05:01:42;;;;;;;;;;;;;;;-144.99;90.27;52289.13;5072643;28;19957;-62
2021/05/01 05:04:11;;;;;;;;;;;;;;;-144.99;90.98;52285.03;5072561;28;19949;-63
2021/05/01 05:06:40;;;;;;;;;;;;;;;-144.99;90.83;52276.88;5070200;28;19961;-63
2021/05/01 05:09:09;;;;;;;;;;;;;;;-144.99;91.16;52305.41;5072857;28;19969;-63
2021/05/01 05:11:34;;;;;;;;;;;;;;;-144.99;91.11;52311.53;5072807;28;20107;-63
2021/05/01 05:14:01;;;;;;;;;;;;;;;-144.99;91.25;52285.03;5070872;28;20077;-63
2021/05/01 05:16:27;;;;;;;;;;;;;;;-144.99;90.83;52303.38;5071195;28;20405;-63
2021/05/01 05:18:56;;;;;;;;;;;;;;;-144.99;90.84;52264.66;5065006;28;19972;-63
2021/05/01 05:21:22;;;;;;;;;;;;;;;-144.99;90.88;52313.56;5073014;28;19953;-63
2021/05/01 05:23:49;;;;;;;;;;;;;;;-144.99;90.98;52276.88;5068253;28;20323;-63
2021/05/01 05:26:15;;;;;;;;;;;;;;;-144.99;90.57;52256.50;5070951;28;19949;-65
2021/05/01 05:28:40;;;;;;;;;;;;;;;-144.99;90.57;52252.44;5072230;28;20335;-64
2021/05/01 05:31:09;;;;;;;;;;;;;;;-144.99;90.05;52256.50;5071982;28;19967;-64
2021/05/01 05:33:38;;;;;;;;;;;;;;;-144.99;90.02;52285.03;5073178;28;19946;-64
2021/05/01 05:36:04;;;;;;;;;;;;;;;-144.99;89.92;52285.03;5072840;28;19944;-63
2021/05/01 05:38:30;;;;;;;;;;;;;;;-144.99;89.91;52250.38;5064267;28;19963;-64
2021/05/01 05:40:57;;;;;;;;;;;;;;;-144.99;89.64;52297.25;5071219;28;19957;-64
2021/05/01 05:43:27;;;;;;;;;;;;;;;-144.99;89.77;52289.13;5080953;22;19982;-61
2021/05/01 05:45:53;;;;;;;;;;;;;;;-144.99;89.43;52268.72;5050070;28;19946;-61
2021/05/01 05:48:21;;;;;;;;;;;;;;;-144.99;89.51;52276.88;5049496;28;19966;-61
2021/05/01 05:50:53;;;;;;;;;;;;;;;-144.99;89.20;52280.97;5049656;28;20021;-61
2021/05/01 05:53:21;;;;;;;;;;;;;;;-144.99;89.29;52285.03;5050332;28;19954;-60
2021/05/01 05:55:47;;;;;;;;;;;;;;;-144.99;89.23;52221.84;5046695;28;19948;-61
2021/05/01 05:58:18;;;;;;;;;;;;;;;-144.99;89.31;52248.34;5050945;28;19967;-61
2021/05/01 06:00:47;;;;;;;;;;;;;;;-144.99;89.16;52268.72;5047900;28;20048;-61
2021/05/01 06:03:13;;;;;;;;;;;;;;;-144.99;88.79;52297.25;5044632;28;19947;-62
2021/05/01 06:05:42;;;;;;;;;;;;;;;-144.99;88.56;52252.44;5053442;28;19955;-62
2021/05/01 06:08:11;;;;;;;;;;;;;;;-144.99;88.67;52256.50;5046172;28;19978;-62
2021/05/01 06:10:37;;;;;;;;;;;;;;;-144.99;88.94;52293.19;5053451;28;20203;-63
2021/05/01 06:13:07;;;;;;;;;;;;;;;-144.99;88.72;52248.34;5045006;28;19947;-61
2021/05/01 06:15:36;;;;;;;;;;;;;;;-144.99;87.96;52244.28;5043704;28;19968;-61
2021/05/01 06:18:05;;;;;;;;;;;;;;;-144.99;87.61;52236.13;5048344;28;19966;-61
2021/05/01 06:20:36;;;;;;;;;;;;;;;-144.99;86.86;52287.06;5041571;28;19949;-61
2021/05/01 06:23:02;;;;;;;;;;;;;;;-144.99;86.98;52293.19;5045807;28;20036;-61
2021/05/01 06:25:32;;;;;;;;;;;;;;;-144.99;86.98;52256.50;5051197;28;19955;-60
2021/05/01 06:27:58;;;;;;;;;;;;;;;-144.99;86.18;52285.03;5050366;28;19949;-61
2021/05/01 06:30:24;;;;;;;;;;;;;;;-144.99;85.54;52227.97;5044572;28;20087;-62
2021/05/01 06:32:51;;;;;;;;;;;;;;;-144.99;85.19;52252.44;5044906;28;20327;-62
2021/05/01 06:35:18;;;;;;;;;;;;;;;-144.99;85.23;52291.16;5049780;28;19996;-61
2021/05/01 06:37:45;;;;;;;;;;;;;;;-144.99;84.33;52252.44;5050497;28;20464;-61
2021/05/01 06:40:15;;;;;;;;;;;;;;;-144.99;84.48;52283.00;5051079;28;19948;-62
2021/05/01 06:42:44;;;;;;;;;;;;;;;-144.99;84.07;52254.47;5048577;28;19948;-61
2021/05/01 06:45:13;;;;;;;;;;;;;;;-144.99;83.91;52244.28;5049996;28;19952;-61
2021/05/01 06:47:44;;;;;;;;;;;;;;;-144.99;83.57;52276.88;5040262;28;19957;-61
2021/05/01 06:50:14;;;;;;;;;;;;;;;-144.99;83.46;52266.69;5043339;28;19952;-61
2021/05/01 06:52:41;;;;;;;;;;;;;;;-144.99;83.14;52315.59;5050889;28;20013;-62
2021/05/01 06:55:12;;;;;;;;;;;;;;;-144.99;82.93;52254.47;5046856;28;19957;-62
2021/05/01 06:57:38;;;;;;;;;;;;;;;-144.99;82.30;52248.34;5043109;28;20210;-62
2021/05/01 07:00:08;;;;;;;;;;;;;;;-144.99;82.13;52268.72;5041898;28;19974;-62
2021/05/01 07:02:39;;;;;;;;;;;;;;;-144.99;82.06;52256.50;5050940;28;19968;-62
2021/05/01 07:05:06;;;;;;;;;;;;;;;-144.99;81.83;52260.56;5043806;28;20448;-61
2021/05/01 07:07:33;;;;;;;;;;;;;;;-144.99;81.27;52234.09;5043062;28;20489;-63
2021/05/01 07:09:59;;;;;;;;;;;;;;;-144.99;81.77;52270.78;5050314;28;19996;-63
2021/05/01 07:12:28;;;;;;;;;;;;;;;-144.99;81.04;52260.56;5047046;28;19970;-63
2021/05/01 07:14:57;;;;;;;;;;;;;;;-144.99;80.23;52301.34;5048466;28;20011;-62
2021/05/01 07:17:25;;;;;;;;;;;;;;;-144.99;80.08;52270.78;5049337;28;20312;-61
2021/05/01 07:19:51;;;;;;;;;;;;;;;-144.99;79.74;52264.66;5049582;28;19972;-62
2021/05/01 07:22:17;;;;;;;;;;;;;;;-144.99;79.58;52280.97;5046825;28;19946;-61
2021/05/01 07:24:44;;;;;;;;;;;;;;;-144.99;79.16;52278.91;5052143;28;20450;-62
2021/05/01 07:27:11;;;;;;;;;;;;;;;-144.99;79.17;52264.66;5048919;28;20037;-62
2021/05/01 07:29:38;;;;;;;;;;;;;;;-144.99;79.00;52236.13;5038466;28;19961;-63
2021/05/01 07:32:06;;;;;;;;;;;;;;;-144.99;78.53;52264.66;5046786;28;19962;-62
2021/05/01 07:34:35;;;;;;;;;;;;;;;-144.99;78.37;52240.19;5042771;28;19946;-60
2021/05/01 07:37:06;;;;;;;;;;;;;;;-144.99;78.15;52223.88;5049369;28;19951;-60
2021/05/01 07:39:35;;;;;;;;;;;;;;;-144.99;77.79;52258.53;5050419;28;19969;-61
2021/05/01 07:42:03;;;;;;;;;;;;;;;-144.99;76.83;52215.75;5048223;28;19976;-61
2021/05/01 07:44:30;;;;;;;;;;;;;;;-144.99;76.84;52252.44;5050192;28;19955;-62
2021/05/01 07:46:58;;;;;;;;;;;;;;;-144.99;76.29;52232.03;5046628;28;19946;-61
2021/05/01 07:49:27;;;;;;;;;;;;;;;-144.99;75.85;52223.88;5042742;28;19969;-63
2021/05/01 07:51:56;;;;;;;;;;;;;;;-144.99;75.24;52248.34;5049494;28;20043;-62
2021/05/01 07:54:22;;;;;;;;;;;;;;;-144.99;74.98;52232.03;5043599;28;20323;-62
2021/05/01 07:56:51;;;;;;;;;;;;;;;-144.99;75.49;52256.50;5042583;28;19950;-62
2021/05/01 07:59:17;;;;;;;;;;;;;;;-144.99;74.31;52215.75;5040401;28;19978;-63
2021/05/01 08:01:43;;;;;;;;;;;;;;;-144.99;74.31;52246.31;5049308;28;19946;-63
2021/05/01 08:04:09;;;;;;;;;;;;;;;-144.99;73.77;52219.81;5047522;28;19958;-61
2021/05/01 08:06:35;;;;;;;;;;;;;;;-144.99;73.07;52244.28;5042759;28;20424;-63
2021/05/01 08:09:05;;;;;;;;;;;;;;;-144.99;71.53;52240.19;5045662;28;19966;-62
2021/05/01 08:11:33;;;;;;;;;;;;;;;-144.99;71.46;52181.09;5046251;28;20340;-64
2021/05/01 08:13:59;;;;;;;;;;;;;;;-144.99;70.80;52219.81;5044225;28;19953;-62
2021/05/01 08:16:28;;;;;;;;;;;;;;;-144.99;70.37;52207.59;5039865;28;19994;-62
2021/05/01 08:18:58;;;;;;;;;;;;;;;-144.99;68.42;52168.84;5049537;28;19961;-62
2021/05/01 08:21:24;;;;;;;;;;;;;;;-144.99;68.69;52232.03;5044349;28;19957;-63
2021/05/01 08:23:52;;;;;;;;;;;;;;;-144.99;68.76;52179.06;5043138;28;19995;-62
2021/05/01 08:26:18;;;;;;;;;;;;;;;-144.99;67.30;52187.19;5041145;28;19946;-62
2021/05/01 08:28:44;;;;;;;;;;;;;;;-144.99;65.79;52199.44;5041278;28;20006;-63
2021/05/01 08:31:12;;;;;;;;;;;;;;;-144.99;66.31;52162.75;5049024;28;19973;-63
2021/05/01 08:33:42;;;;;;;;;;;;;;;-144.99;65.82;52185.16;5041609;28;19949;-63
2021/05/01 08:36:08;;;;;;;;;;;;;;;-144.99;64.96;52183.13;5046776;28;20400;-63
2021/05/01 08:38:36;;;;;;;;;;;;;;;-144.99;64.25;52152.56;5047791;28;19968;-63
2021/05/01 08:41:06;;;;;;;;;;;;;;;-144.99;63.51;52172.94;5049276;28;19956;-62
2021/05/01 08:43:32;;;;;;;;;;;;;;;-144.99;63.69;52183.13;5042877;28;19956;-61
2021/05/01 08:45:59;;;;;;;;;;;;;;;-144.99;61.99;52205.53;5038282;28;19955;-61
2021/05/01 08:48:28;;;;;;;;;;;;;;;-144.99;61.69;52179.06;5048691;28;20006;-62
2021/05/01 08:50:58;;;;;;;;;;;;;;;-144.99;61.90;52146.44;5047318;28;20002;-62
2021/05/01 08:53:24;;;;;;;;;;;;;;;-144.99;62.37;52199.44;5049494;28;20317;-62
2021/05/01 08:55:52;;;;;;;;;;;;;;;-144.99;63.01;52227.97;5049277;28;20417;-62
2021/05/01 08:58:18;;;;;;;;;;;;;;;-144.99;63.01;52187.19;5048241;28;19967;-63
2021/05/01 09:00:47;;;;;;;;;;;;;;;-144.99;63.58;52199.44;5044326;28;20337;-61
2021/05/01 09:03:13;;;;;;;;;;;;;;;-144.99;62.83;52219.81;5041420;28;20417;-62
2021/05/01 09:05:42;;;;;;;;;;;;;;;-144.99;62.56;52199.44;5049941;28;20016;-62
2021/05/01 09:08:10;;;;;;;;;;;;;;;-144.99;62.99;52203.50;5041350;28;19962;-62
2021/05/01 09:10:40;;;;;;;;;;;;;;;-144.99;62.09;52183.13;5049091;28;19952;-63
2021/05/01 09:13:12;;;;;;;;;;;;;;;-144.99;60.96;52148.47;5041734;28;20037;-62
2021/05/01 09:15:37;;;;;;;;;;;;;;;-144.99;59.67;52179.06;5041611;28;20331;-61
2021/05/01 09:18:04;;;;;;;;;;;;;;;-144.99;59.34;52181.09;5044153;28;20202;-60
2021/05/01 09:20:34;;;;;;;;;;;;;;;-144.99;59.50;52154.59;5043152;28;19945;-62
2021/05/01 09:23:01;;;;;;;;;;;;;;;-144.99;56.96;52158.66;5046799;28;20415;-61
2021/05/01 09:25:35;;;;;;;;;;;;;;;-144.99;57.09;52195.34;5049911;28;19953;-61
2021/05/01 09:28:03;;;;;;;;;;;;;;;-144.99;56.76;52162.75;5041463;28;19948;-62
2021/05/01 09:30:32;;;;;;;;;;;;;;;-144.99;57.94;52164.78;5052040;28;19951;-61
2021/05/01 09:33:31;;;;;;;;;;;;;;;-144.99;57.57;52150.53;5041358;28;20351;-62
2021/05/01 09:36:08;;;;;;;;;;;;;;;-144.99;56.43;52174.97;5049691;28;19956;-60
2021/05/01 09:38:36;;;;;;;;;;;;;;;-144.99;56.11;52199.44;5048421;28;20042;-61
2021/05/01 09:41:07;;;;;;;;;;;;;;;-144.99;55.17;52117.91;5052806;28;19954;-62
2021/05/01 09:43:36;;;;;;;;;;;;;;;-144.99;55.24;52205.53;5047719;28;19951;-61
2021/05/01 09:46:13;;;;;;;;;;;;;;;-144.99;55.59;52170.91;5051313;28;19956;-61
2021/05/01 09:48:38;;;;;;;;;;;;;;;-144.99;54.96;52158.66;5049358;28;19969;-62
2021/05/01 09:51:07;;;;;;;;;;;;;;;-144.99;54.53;52146.44;5050338;28;19963;-62
2021/05/01 09:53:34;;;;;;;;;;;;;;;-144.99;53.82;52138.28;5049377;28;19946;-61
2021/05/01 09:56:00;;;;;;;;;;;;;;;-144.99;52.91;52134.22;5048237;28;19946;-62
2021/05/01 09:58:28;;;;;;;;;;;;;;;-144.99;53.09;52126.06;5050074;28;19964;-61
2021/05/01 10:00:54;;;;;;;;;;;;;;;-144.99;52.61;52073.06;5046973;28;20036;-60
2021/05/01 10:03:21;;;;;;;;;;;;;;;-144.99;51.30;52138.28;5044138;28;20043;-61
2021/05/01 10:05:48;;;;;;;;;;;;;;;-144.99;51.16;52103.66;5051828;28;19950;-63
2021/05/01 10:08:17;;;;;;;;;;;;;;;-144.99;50.79;52126.06;5044275;28;19968;-61
2021/05/01 10:10:43;;;;;;;;;;;;;;;-144.99;49.83;52109.75;5053310;28;20004;-62
2021/05/01 10:13:10;;;;;;;;;;;;;;;-144.99;50.38;52073.06;5044792;28;19962;-62
2021/05/01 10:15:37;;;;;;;;;;;;;;;-144.99;50.20;52115.88;5044910;28;19951;-62
2021/05/01 10:18:10;;;;;;;;;;;;;;;-144.99;50.14;52113.84;5046879;28;19965;-61
2021/05/01 10:20:47;;;;;;;;;;;;;;;-144.99;50.04;52085.31;5041503;28;19950;-62
2021/05/01 10:23:14;;;;;;;;;;;;;;;-144.99;50.16;52150.53;5043051;28;19952;-62
2021/05/01 10:25:39;;;;;;;;;;;;;;;-144.99;49.78;52062.88;5047519;28;19959;-61
2021/05/01 10:28:13;;;;;;;;;;;;;;;-144.99;49.43;52064.91;5040986;28;19984;-62
2021/05/01 10:30:42;;;;;;;;;;;;;;;-144.99;48.29;52038.44;5051587;28;20078;-61
2021/05/01 10:33:29;;;;;;;;;;;;;;;-144.99;46.92;52040.47;5043136;28;19963;-61
2021/05/01 10:36:01;;;;;;;;;;;;;;;-144.99;47.19;52040.47;5051907;28;20317;-62
2021/05/01 10:38:30;;;;;;;;;;;;;;;-144.99;46.48;51985.44;5050526;28;20092;-62
2021/05/01 10:40:57;;;;;;;;;;;;;;;-144.99;45.30;52060.84;5051056;28;19946;-62
2021/05/01 10:43:24;;;;;;;;;;;;;;;-144.99;45.89;52003.78;5049041;28;19966;-62
2021/05/01 10:45:56;;;;;;;;;;;;;;;-144.99;45.07;52060.84;5050417;28;20348;-62
2021/05/01 10:48:22;;;;;;;;;;;;;;;-144.99;45.27;52093.44;5046501;28;19978;-62
2021/05/01 10:50:59;;;;;;;;;;;;;;;-144.99;45.58;52101.59;5045435;28;20055;-62
2021/05/01 10:53:28;;;;;;;;;;;;;;;-144.99;45.28;52117.91;5049093;28;19961;-62
2021/05/01 10:55:55;;;;;;;;;;;;;;;-144.99;45.53;52132.19;5045453;28;19952;-62
2021/05/01 10:58:34;;;;;;;;;;;;;;;-144.99;46.48;52117.91;5049551;28;19980;-62
2021/05/01 11:01:01;;;;;;;;;;;;;;;-144.99;46.38;52101.59;5050293;28;20469;-62
2021/05/01 11:03:27;;;;;;;;;;;;;;;-144.99;46.83;52030.28;5047831;28;19946;-62
2021/05/01 11:05:54;;;;;;;;;;;;;;;-144.99;46.20;52030.28;5047436;28;20328;-62
2021/05/01 11:08:33;;;;;;;;;;;;;;;-144.99;45.73;51987.47;5043359;28;19973;-63
2021/05/01 11:11:01;;;;;;;;;;;;;;;-144.99;43.60;51905.97;5048962;28;19969;-62
2021/05/01 11:13:30;;;;;;;;;;;;;;;-144.99;43.06;51936.53;5045221;28;19958;-61
2021/05/01 11:16:00;;;;;;;;;;;;;;;-144.99;42.47;51952.81;5041708;28;19949;-62
2021/05/01 11:18:30;;;;;;;;;;;;;;;-144.99;41.68;51946.72;5050294;28;19966;-61
2021/05/01 11:20:58;;;;;;;;;;;;;;;-144.99;40.85;52048.63;5050068;28;19955;-61
2021/05/01 11:23:25;;;;;;;;;;;;;;;-144.99;41.25;52024.16;5050022;28;19959;-61
2021/05/01 11:25:56;;;;;;;;;;;;;;;-144.99;42.06;52128.09;5043937;28;20043;-61
2021/05/01 11:28:23;;;;;;;;;;;;;;;-144.99;41.44;51958.94;5041071;28;19968;-61
2021/05/01 11:30:50;;;;;;;;;;;;;;;-144.99;41.56;52130.13;5049979;28;19966;-61
2021/05/01 11:33:18;;;;;;;;;;;;;;;-144.99;42.10;52130.13;5042465;28;19963;-62
2021/05/01 11:35:45;;;;;;;;;;;;;;;-144.99;43.01;52142.38;5049495;28;19956;-61
2021/05/01 11:38:15;;;;;;;;;;;;;;;-144.99;43.80;52166.81;5048592;28;20326;-61
2021/05/01 11:40:49;;;;;;;;;;;;;;;-144.99;44.71;52191.28;5049636;28;19957;-61
2021/05/01 11:43:14;;;;;;;;;;;;;;;-144.99;46.14;52232.03;5047578;28;19948;-61
2021/05/01 11:45:44;;;;;;;;;;;;;;;-144.99;46.50;52203.50;5049322;28;20458;-63
2021/05/01 11:48:11;;;;;;;;;;;;;;;-144.99;47.92;52225.94;5046467;28;20193;-62
2021/05/01 11:50:37;;;;;;;;;;;;;;;-144.99;47.46;52215.75;5043080;28;19957;-62
2021/05/01 11:53:13;;;;;;;;;;;;;;;-144.99;47.59;52219.81;5049836;28;20019;-62
2021/05/01 11:55:41;;;;;;;;;;;;;;;-144.99;48.28;52191.28;5046518;28;20152;-62
2021/05/01 11:58:29;;;;;;;;;;;;;;;-144.99;48.96;52211.66;5043386;28;19980;-62
2021/05/01 12:00:55;;;;;;;;;;;;;;;-144.99;49.51;52248.34;5044966;28;19946;-62
2021/05/01 12:03:23;;;;;;;;;;;;;;;-144.99;49.77;52183.13;5047235;28;20004;-62
2021/05/01 12:05:54;;;;;;;;;;;;;;;-144.99;50.06;52262.63;5046576;28;19951;-63
2021/05/01 12:08:22;;;;;;;;;;;;;;;-144.99;49.79;52227.97;5042197;28;19974;-62
2021/05/01 12:10:49;;;;;;;;;;;;;;;-144.99;48.95;52211.66;5049049;28;19954;-61
2021/05/01 12:13:16;;;;;;;;;;;;;;;-144.99;49.07;52187.19;5042095;28;19966;-63
2021/05/01 12:15:46;;;;;;;;;;;;;;;-144.99;48.65;52140.31;5041386;28;19950;-62
2021/05/01 12:18:11;;;;;;;;;;;;;;;-144.99;47.84;52207.59;5045755;28;20025;-63
2021/05/01 12:20:38;;;;;;;;;;;;;;;-144.99;47.77;52219.81;5049493;28;20396;-63
2021/05/01 12:23:06;;;;;;;;;;;;;;;-144.99;47.75;52223.88;5049480;28;20409;-61
2021/05/01 12:25:40;;;;;;;;;;;;;;;-144.99;47.59;52199.44;5040714;28;19947;-61
2021/05/01 12:28:10;;;;;;;;;;;;;;;-144.99;48.64;52199.44;5046379;28;20002;-62
2021/05/01 12:30:59;;;;;;;;;;;;;;;-144.99;47.99;52211.66;5049189;28;20034;-62
2021/05/01 12:33:46;;;;;;;;;;;;;;;-144.99;48.00;52187.19;5041107;28;20000;-62